Карточка аэропорта UNTT

Внимание!
Информация на этой странице в стадии наполнения.
Если вы не увидели какой-то информации, или заметили неточность - пожалуйста сообщите нам!
Спасибо!
Команда RU-STAFF
Название аэропортаБогашево
Название аэропорта (англ.)Bogashevo
Превышение597 ft. (182 m.)
Координаты56°22.2', 85°12.6'
Высота перехода1000m
Эшелон переходаQFE>=743mm:FL040; QFE<743mm:FL050
Коды ответчика5230-5247
Зона ОрВДНовосибирск РПИ (UNNT)
Данные METARUNTT 251230Z 21003MPS 9999 SCT036CB 28/21 Q1004 R21/////// NOSIG RMK QFE737
Проноз погоды (TAF)UNTT 251100Z 2512/2521 08003G08MPS 8000 SCT030CB TEMPO 2512/2518 28005G15MPS 1500 TSRA BKN016CB
NOTAMshow/hide NOTAM
AWOS   TABLE

Информация о ВПП

ВПП Длина ВПП (м.) Покрытие Курс ВПП Частота ILS
212500Асфальтобетон205110.3
032500Асфальтобетон25 

Диспетчерские позиции




Спутниковое изображение